Map

Track Data

SID SEASON NUMBER BASIN SUBBASIN NAME ISO_TIME NATURE LAT LON WMO_WIND WMO_PRES WMO_AGENCY TRACK_TYPE DIST2LAND LANDFALL IFLAG USA_AGENCY USA_ATCF_ID USA_LAT USA_LON USA_RECORD USA_STATUS USA_WIND USA_PRES USA_SSHS USA_R34_NE USA_R34_SE USA_R34_SW USA_R34_NW USA_R50_NE USA_R50_SE USA_R50_SW USA_R50_NW USA_R64_NE USA_R64_SE USA_R64_SW USA_R64_NW USA_POCI USA_ROCI USA_RMW USA_EYE TOKYO_LAT TOKYO_LON TOKYO_GRADE TOKYO_WIND TOKYO_PRES TOKYO_R50_DIR TOKYO_R50_LONG TOKYO_R50_SHORT TOKYO_R30_DIR TOKYO_R30_LONG TOKYO_R30_SHORT TOKYO_LAND CMA_LAT CMA_LON CMA_CAT CMA_WIND CMA_PRES HKO_LAT HKO_LON HKO_CAT HKO_WIND HKO_PRES NEWDELHI_LAT NEWDELHI_LON NEWDELHI_GRADE NEWDELHI_WIND NEWDELHI_PRES NEWDELHI_CI NEWDELHI_DP NEWDELHI_POCI REUNION_LAT REUNION_LON REUNION_TYPE REUNION_WIND REUNION_PRES REUNION_TNUM REUNION_CI REUNION_RMW REUNION_R34_NE REUNION_R34_SE REUNION_R34_SW REUNION_R34_NW REUNION_R50_NE REUNION_R50_SE REUNION_R50_SW REUNION_R50_NW REUNION_R64_NE REUNION_R64_SE REUNION_R64_SW REUNION_R64_NW BOM_LAT BOM_LON BOM_TYPE BOM_WIND BOM_PRES BOM_TNUM BOM_CI BOM_RMW BOM_R34_NE BOM_R34_SE BOM_R34_SW BOM_R34_NW BOM_R50_NE BOM_R50_SE BOM_R50_SW BOM_R50_NW BOM_R64_NE BOM_R64_SE BOM_R64_SW BOM_R64_NW BOM_ROCI BOM_POCI BOM_EYE BOM_POS_METHOD BOM_PRES_METHOD NADI_LAT NADI_LON NADI_CAT NADI_WIND NADI_PRES WELLINGTON_LAT WELLINGTON_LON WELLINGTON_WIND WELLINGTON_PRES DS824_LAT DS824_LON DS824_STAGE DS824_WIND DS824_PRES TD9636_LAT TD9636_LON TD9636_STAGE TD9636_WIND TD9636_PRES TD9635_LAT TD9635_LON TD9635_WIND TD9635_PRES TD9635_ROCI NEUMANN_LAT NEUMANN_LON NEUMANN_CLASS NEUMANN_WIND NEUMANN_PRES MLC_LAT MLC_LON MLC_CLASS MLC_WIND MLC_PRES USA_GUST BOM_GUST BOM_GUST_PER REUNION_GUST REUNION_GUST_PER USA_SEAHGT USA_SEARAD_NE USA_SEARAD_SE USA_SEARAD_SW USA_SEARAD_NW STORM_SPEED STORM_DIR
1918240N18142 1918 53 WP MM NOT_NAMED 1918-08-27 22:00:00 NR 17.6000 142.000 main 1870 1799 __________O___ -1 17.6000 142.000 7 21 316
1918240N18142 1918 53 WP MM NOT_NAMED 1918-08-28 00:00:00 NR 18.0997 141.493 main 1799 1688 __________P___ -1 18.0997 141.493 7 21 316
1918240N18142 1918 53 WP MM NOT_NAMED 1918-08-28 03:00:00 NR 18.8483 140.732 main 1688 1573 __________P___ -1 18.8483 140.732 7 21 316
1918240N18142 1918 53 WP MM NOT_NAMED 1918-08-28 06:00:00 NR 19.5972 139.979 main 1573 1463 __________P___ -1 19.5972 139.979 7 21 317
1918240N18142 1918 53 WP MM NOT_NAMED 1918-08-28 09:00:00 NR 20.3485 139.241 main 1463 1424 __________P___ -1 20.3485 139.241 7 20 318
1918240N18142 1918 53 WP MM NOT_NAMED 1918-08-28 10:00:00 NR 20.6000 139.000 main 1424 1349 __________O___ -1 20.6000 139.000 7 20 319
1918240N18142 1918 53 WP MM NOT_NAMED 1918-08-28 12:00:00 NR 21.1046 138.527 main 1349 1236 __________P___ -1 21.1046 138.527 7 20 319
1918240N18142 1918 53 WP MM NOT_NAMED 1918-08-28 15:00:00 NR 21.8623 137.844 main 1236 1137 __________P___ -1 21.8623 137.844 7 20 321
1918240N18142 1918 53 WP MM NOT_NAMED 1918-08-28 18:00:00 NR 22.6151 137.196 main 1137 1029 __________P___ -1 22.6151 137.196 7 19 322
1918240N18142 1918 53 WP MM NOT_NAMED 1918-08-28 21:00:00 NR 23.3565 136.591 main 1029 999 __________P___ -1 23.3565 136.591 7 18 323
1918240N18142 1918 53 WP MM NOT_NAMED 1918-08-28 22:00:00 NR 23.6000 136.400 main 999 930 __________O___ -1 23.6000 136.400 3 18 324
1918240N18142 1918 53 WP MM NOT_NAMED 1918-08-29 00:00:00 NR 24.0853 136.013 main 930 837 __________P___ -1 24.0853 136.013 3 18 325
1918240N18142 1918 53 WP MM NOT_NAMED 1918-08-29 03:00:00 NR 24.8015 135.471 main 837 744 __________P___ -1 24.8015 135.471 3 17 326
1918240N18142 1918 53 WP MM NOT_NAMED 1918-08-29 06:00:00 NR 25.5005 134.978 main 744 651 __________P___ -1 25.5005 134.978 3 16 329
1918240N18142 1918 53 WP MM NOT_NAMED 1918-08-29 09:00:00 NR 26.1790 134.535 main 651 627 __________P___ -1 26.1790 134.535 3 16 330
1918240N18142 1918 53 WP MM NOT_NAMED 1918-08-29 10:00:00 NR 26.4000 134.400 main 627 573 __________O___ -1 26.4000 134.400 4 15 332
1918240N18142 1918 53 WP MM NOT_NAMED 1918-08-29 12:00:00 NR 26.8338 134.147 main 573 492 __________P___ -1 26.8338 134.147 4 14 334
1918240N18142 1918 53 WP MM NOT_NAMED 1918-08-29 15:00:00 NR 27.4677 133.804 main 492 420 __________P___ -1 27.4677 133.804 4 14 335
1918240N18142 1918 53 WP MM NOT_NAMED 1918-08-29 18:00:00 NR 28.0868 133.492 main 420 347 __________P___ -1 28.0868 133.492 4 13 336
1918240N18142 1918 53 WP MM NOT_NAMED 1918-08-29 21:00:00 NR 28.6974 133.197 main 347 323 __________P___ -1 28.6974 133.197 4 13 337
1918240N18142 1918 53 WP MM NOT_NAMED 1918-08-29 22:00:00 NR 28.9000 133.100 main 323 __________O___ -1 28.9000 133.100 4 13 337

Digital Typhoon Data and Search

About IBTrACS Database

This database is a web-friendly format of International Best Track Archive for Climate Stewardship (IBTrACS), a global best track data archive curated by NOAA dating back to 1842.

Updated: 2021-10-08